sensor_id;sensor_type;location;lat;lon;timestamp;temperature;humidity
25280;DHT22;13225;47.804;12.116;2024-02-23T00:01:35;9.10;99.90
25280;DHT22;13225;47.804;12.116;2024-02-23T00:04:00;8.90;99.90
25280;DHT22;13225;47.804;12.116;2024-02-23T00:06:28;8.40;99.90
25280;DHT22;13225;47.804;12.116;2024-02-23T00:08:54;7.70;99.90
25280;DHT22;13225;47.804;12.116;2024-02-23T00:11:21;7.40;99.90
25280;DHT22;13225;47.804;12.116;2024-02-23T00:13:46;7.30;99.90
25280;DHT22;13225;47.804;12.116;2024-02-23T00:16:12;7.20;99.90
25280;DHT22;13225;47.804;12.116;2024-02-23T00:18:38;7.10;99.90
25280;DHT22;13225;47.804;12.116;2024-02-23T00:21:04;7.00;99.90
25280;DHT22;13225;47.804;12.116;2024-02-23T00:23:30;7.00;99.90
25280;DHT22;13225;47.804;12.116;2024-02-23T00:25:55;7.00;99.90
25280;DHT22;13225;47.804;12.116;2024-02-23T00:28:21;6.90;99.90
25280;DHT22;13225;47.804;12.116;2024-02-23T00:30:47;7.00;99.90
25280;DHT22;13225;47.804;12.116;2024-02-23T00:33:12;6.90;99.90
25280;DHT22;13225;47.804;12.116;2024-02-23T00:35:38;6.80;99.90
25280;DHT22;13225;47.804;12.116;2024-02-23T00:38:04;6.90;99.90
25280;DHT22;13225;47.804;12.116;2024-02-23T00:40:29;6.90;99.90
25280;DHT22;13225;47.804;12.116;2024-02-23T00:42:55;6.80;99.90
25280;DHT22;13225;47.804;12.116;2024-02-23T00:45:21;6.80;99.90
25280;DHT22;13225;47.804;12.116;2024-02-23T00:47:47;6.90;99.90
25280;DHT22;13225;47.804;12.116;2024-02-23T00:50:13;7.00;99.90
25280;DHT22;13225;47.804;12.116;2024-02-23T00:52:39;7.10;99.90
25280;DHT22;13225;47.804;12.116;2024-02-23T00:55:05;7.10;99.90
25280;DHT22;13225;47.804;12.116;2024-02-23T00:57:30;7.20;99.90
25280;DHT22;13225;47.804;12.116;2024-02-23T00:59:57;7.20;99.90
25280;DHT22;13225;47.804;12.116;2024-02-23T01:02:22;7.30;99.90
25280;DHT22;13225;47.804;12.116;2024-02-23T01:04:48;7.50;99.90
25280;DHT22;13225;47.804;12.116;2024-02-23T01:07:14;7.50;99.90
25280;DHT22;13225;47.804;12.116;2024-02-23T01:09:39;7.60;99.90
25280;DHT22;13225;47.804;12.116;2024-02-23T01:12:05;7.60;99.90
25280;DHT22;13225;47.804;12.116;2024-02-23T01:14:31;7.60;99.90
25280;DHT22;13225;47.804;12.116;2024-02-23T01:16:56;7.60;99.90
25280;DHT22;13225;47.804;12.116;2024-02-23T01:19:22;7.60;99.90
25280;DHT22;13225;47.804;12.116;2024-02-23T01:21:49;7.70;99.90
25280;DHT22;13225;47.804;12.116;2024-02-23T01:24:21;7.50;99.90
25280;DHT22;13225;47.804;12.116;2024-02-23T01:26:47;7.50;99.90
25280;DHT22;13225;47.804;12.116;2024-02-23T01:29:12;7.50;99.90
25280;DHT22;13225;47.804;12.116;2024-02-23T01:31:38;7.50;99.90
25280;DHT22;13225;47.804;12.116;2024-02-23T01:34:03;7.40;99.90
25280;DHT22;13225;47.804;12.116;2024-02-23T01:36:29;7.30;99.90
25280;DHT22;13225;47.804;12.116;2024-02-23T01:38:55;7.30;99.90
25280;DHT22;13225;47.804;12.116;2024-02-23T01:41:20;7.20;99.90
25280;DHT22;13225;47.804;12.116;2024-02-23T01:43:46;7.10;99.90
25280;DHT22;13225;47.804;12.116;2024-02-23T01:46:12;7.00;99.90
25280;DHT22;13225;47.804;12.116;2024-02-23T01:48:38;7.00;99.90
25280;DHT22;13225;47.804;12.116;2024-02-23T01:51:04;7.10;99.90
25280;DHT22;13225;47.804;12.116;2024-02-23T01:53:30;7.00;99.90
25280;DHT22;13225;47.804;12.116;2024-02-23T01:55:57;7.10;99.90
25280;DHT22;13225;47.804;12.116;2024-02-23T01:58:24;7.20;99.90
25280;DHT22;13225;47.804;12.116;2024-02-23T02:00:50;7.20;99.90
25280;DHT22;13225;47.804;12.116;2024-02-23T02:03:16;7.10;99.90
25280;DHT22;13225;47.804;12.116;2024-02-23T02:05:41;7.10;99.90
25280;DHT22;13225;47.804;12.116;2024-02-23T02:08:07;7.10;99.90
25280;DHT22;13225;47.804;12.116;2024-02-23T02:10:33;7.10;99.90
25280;DHT22;13225;47.804;12.116;2024-02-23T02:13:03;7.10;99.90
25280;DHT22;13225;47.804;12.116;2024-02-23T02:15:29;7.10;99.90
25280;DHT22;13225;47.804;12.116;2024-02-23T02:17:55;7.20;99.90
25280;DHT22;13225;47.804;12.116;2024-02-23T02:20:24;7.20;99.90
25280;DHT22;13225;47.804;12.116;2024-02-23T02:22:50;7.20;99.90
25280;DHT22;13225;47.804;12.116;2024-02-23T02:25:16;7.20;99.90
25280;DHT22;13225;47.804;12.116;2024-02-23T02:27:42;7.10;99.90
25280;DHT22;13225;47.804;12.116;2024-02-23T02:30:08;7.20;99.90
25280;DHT22;13225;47.804;12.116;2024-02-23T02:32:35;7.10;99.90
25280;DHT22;13225;47.804;12.116;2024-02-23T02:35:00;7.10;99.90
25280;DHT22;13225;47.804;12.116;2024-02-23T02:37:26;7.00;99.90
25280;DHT22;13225;47.804;12.116;2024-02-23T02:39:51;7.00;99.90
25280;DHT22;13225;47.804;12.116;2024-02-23T02:42:17;7.00;99.90
25280;DHT22;13225;47.804;12.116;2024-02-23T02:44:42;7.10;99.90
25280;DHT22;13225;47.804;12.116;2024-02-23T02:47:08;7.10;99.90
25280;DHT22;13225;47.804;12.116;2024-02-23T02:49:34;7.10;99.90
25280;DHT22;13225;47.804;12.116;2024-02-23T02:51:59;7.10;99.90
25280;DHT22;13225;47.804;12.116;2024-02-23T02:54:25;7.10;99.90
25280;DHT22;13225;47.804;12.116;2024-02-23T02:56:50;7.10;99.90
25280;DHT22;13225;47.804;12.116;2024-02-23T02:59:19;7.10;99.90
25280;DHT22;13225;47.804;12.116;2024-02-23T03:01:45;7.10;99.90
25280;DHT22;13225;47.804;12.116;2024-02-23T03:04:12;7.00;99.90
25280;DHT22;13225;47.804;12.116;2024-02-23T03:06:38;7.00;99.90
25280;DHT22;13225;47.804;12.116;2024-02-23T03:09:03;7.00;99.90
25280;DHT22;13225;47.804;12.116;2024-02-23T03:11:30;6.90;99.90
25280;DHT22;13225;47.804;12.116;2024-02-23T03:13:55;6.90;99.90
25280;DHT22;13225;47.804;12.116;2024-02-23T03:16:21;6.80;99.90
25280;DHT22;13225;47.804;12.116;2024-02-23T03:18:51;6.80;99.90
25280;DHT22;13225;47.804;12.116;2024-02-23T03:21:17;6.80;99.90
25280;DHT22;13225;47.804;12.116;2024-02-23T03:23:43;6.80;99.90
25280;DHT22;13225;47.804;12.116;2024-02-23T03:26:08;6.80;99.90
25280;DHT22;13225;47.804;12.116;2024-02-23T03:28:34;6.80;99.90
25280;DHT22;13225;47.804;12.116;2024-02-23T03:31:02;6.80;99.90
25280;DHT22;13225;47.804;12.116;2024-02-23T03:33:28;7.10;99.90
25280;DHT22;13225;47.804;12.116;2024-02-23T03:35:54;7.70;99.90
25280;DHT22;13225;47.804;12.116;2024-02-23T03:38:21;7.90;99.90
25280;DHT22;13225;47.804;12.116;2024-02-23T03:40:46;7.80;99.90
25280;DHT22;13225;47.804;12.116;2024-02-23T03:43:12;7.70;99.90
25280;DHT22;13225;47.804;12.116;2024-02-23T03:45:37;7.80;99.90
25280;DHT22;13225;47.804;12.116;2024-02-23T03:48:04;7.70;99.90
25280;DHT22;13225;47.804;12.116;2024-02-23T03:50:30;7.70;99.90
25280;DHT22;13225;47.804;12.116;2024-02-23T03:52:55;7.60;99.90
25280;DHT22;13225;47.804;12.116;2024-02-23T03:55:21;7.60;99.90
25280;DHT22;13225;47.804;12.116;2024-02-23T03:57:47;7.50;99.90
25280;DHT22;13225;47.804;12.116;2024-02-23T04:00:13;7.40;99.90
25280;DHT22;13225;47.804;12.116;2024-02-23T04:02:39;7.40;99.90
25280;DHT22;13225;47.804;12.116;2024-02-23T04:05:05;7.30;99.90
25280;DHT22;13225;47.804;12.116;2024-02-23T04:07:31;7.30;99.90
25280;DHT22;13225;47.804;12.116;2024-02-23T04:09:57;7.20;99.90
25280;DHT22;13225;47.804;12.116;2024-02-23T04:12:22;7.20;99.90
25280;DHT22;13225;47.804;12.116;2024-02-23T04:14:48;7.10;99.90
25280;DHT22;13225;47.804;12.116;2024-02-23T04:17:14;7.20;99.90
25280;DHT22;13225;47.804;12.116;2024-02-23T04:19:42;7.20;99.90
25280;DHT22;13225;47.804;12.116;2024-02-23T04:22:09;7.10;99.90
25280;DHT22;13225;47.804;12.116;2024-02-23T04:24:37;7.10;99.90
25280;DHT22;13225;47.804;12.116;2024-02-23T04:27:04;7.10;99.90
25280;DHT22;13225;47.804;12.116;2024-02-23T04:29:29;7.10;99.90
25280;DHT22;13225;47.804;12.116;2024-02-23T04:31:55;7.10;99.90
25280;DHT22;13225;47.804;12.116;2024-02-23T04:34:21;7.10;99.90
25280;DHT22;13225;47.804;12.116;2024-02-23T04:36:46;7.00;99.90
25280;DHT22;13225;47.804;12.116;2024-02-23T04:39:12;7.00;99.90
25280;DHT22;13225;47.804;12.116;2024-02-23T04:41:38;7.00;99.90
25280;DHT22;13225;47.804;12.116;2024-02-23T04:44:03;6.90;99.90
25280;DHT22;13225;47.804;12.116;2024-02-23T04:46:30;6.90;99.90
25280;DHT22;13225;47.804;12.116;2024-02-23T04:48:56;6.80;99.90
25280;DHT22;13225;47.804;12.116;2024-02-23T04:51:21;6.80;99.90
25280;DHT22;13225;47.804;12.116;2024-02-23T04:53:49;6.80;99.90
25280;DHT22;13225;47.804;12.116;2024-02-23T04:56:15;6.80;99.90
25280;DHT22;13225;47.804;12.116;2024-02-23T04:58:40;6.70;99.90
25280;DHT22;13225;47.804;12.116;2024-02-23T05:01:08;6.70;99.90
25280;DHT22;13225;47.804;12.116;2024-02-23T05:03:33;6.70;99.90
25280;DHT22;13225;47.804;12.116;2024-02-23T05:05:59;6.70;99.90
25280;DHT22;13225;47.804;12.116;2024-02-23T05:08:24;6.60;99.90
25280;DHT22;13225;47.804;12.116;2024-02-23T05:10:52;6.60;99.90
25280;DHT22;13225;47.804;12.116;2024-02-23T05:13:17;6.60;99.90
25280;DHT22;13225;47.804;12.116;2024-02-23T05:15:43;6.50;99.90
25280;DHT22;13225;47.804;12.116;2024-02-23T05:18:08;6.50;99.90
25280;DHT22;13225;47.804;12.116;2024-02-23T05:20:34;6.50;99.90
25280;DHT22;13225;47.804;12.116;2024-02-23T05:22:59;6.50;99.90
25280;DHT22;13225;47.804;12.116;2024-02-23T05:25:26;6.50;99.90
25280;DHT22;13225;47.804;12.116;2024-02-23T05:27:52;6.50;99.90
25280;DHT22;13225;47.804;12.116;2024-02-23T05:30:18;6.50;99.90
25280;DHT22;13225;47.804;12.116;2024-02-23T05:32:43;6.40;99.90
25280;DHT22;13225;47.804;12.116;2024-02-23T05:35:09;6.40;99.90
25280;DHT22;13225;47.804;12.116;2024-02-23T05:37:36;6.30;99.90
25280;DHT22;13225;47.804;12.116;2024-02-23T05:40:03;6.20;99.90
25280;DHT22;13225;47.804;12.116;2024-02-23T05:42:36;6.10;99.90
25280;DHT22;13225;47.804;12.116;2024-02-23T05:45:02;6.10;99.90
25280;DHT22;13225;47.804;12.116;2024-02-23T05:47:30;6.10;99.90
25280;DHT22;13225;47.804;12.116;2024-02-23T05:49:55;5.90;99.90
25280;DHT22;13225;47.804;12.116;2024-02-23T05:52:21;5.80;99.90
25280;DHT22;13225;47.804;12.116;2024-02-23T05:54:47;5.80;99.90
25280;DHT22;13225;47.804;12.116;2024-02-23T05:57:12;5.80;99.90
25280;DHT22;13225;47.804;12.116;2024-02-23T05:59:38;5.70;99.90
25280;DHT22;13225;47.804;12.116;2024-02-23T06:02:03;5.70;99.90
25280;DHT22;13225;47.804;12.116;2024-02-23T06:04:29;5.70;99.90
25280;DHT22;13225;47.804;12.116;2024-02-23T06:06:55;5.60;99.90
25280;DHT22;13225;47.804;12.116;2024-02-23T06:09:21;5.60;99.90
25280;DHT22;13225;47.804;12.116;2024-02-23T06:11:46;5.60;99.90
25280;DHT22;13225;47.804;12.116;2024-02-23T06:14:12;5.60;99.90
25280;DHT22;13225;47.804;12.116;2024-02-23T06:16:38;5.60;99.90
25280;DHT22;13225;47.804;12.116;2024-02-23T06:19:03;5.50;99.90
25280;DHT22;13225;47.804;12.116;2024-02-23T06:21:29;5.50;99.90
25280;DHT22;13225;47.804;12.116;2024-02-23T06:23:55;5.50;99.90
25280;DHT22;13225;47.804;12.116;2024-02-23T06:26:21;5.50;99.90
25280;DHT22;13225;47.804;12.116;2024-02-23T06:28:47;5.40;99.90
25280;DHT22;13225;47.804;12.116;2024-02-23T06:31:14;5.40;99.90
25280;DHT22;13225;47.804;12.116;2024-02-23T06:33:40;5.40;99.90
25280;DHT22;13225;47.804;12.116;2024-02-23T06:36:09;5.50;99.90
25280;DHT22;13225;47.804;12.116;2024-02-23T06:38:35;5.50;99.90
25280;DHT22;13225;47.804;12.116;2024-02-23T06:41:00;5.50;99.90
25280;DHT22;13225;47.804;12.116;2024-02-23T06:43:26;5.40;99.90
25280;DHT22;13225;47.804;12.116;2024-02-23T06:45:52;5.50;99.90
25280;DHT22;13225;47.804;12.116;2024-02-23T06:48:18;5.50;99.90
25280;DHT22;13225;47.804;12.116;2024-02-23T06:50:43;5.50;99.90
25280;DHT22;13225;47.804;12.116;2024-02-23T06:53:09;5.50;99.90
25280;DHT22;13225;47.804;12.116;2024-02-23T06:55:35;5.40;99.90
25280;DHT22;13225;47.804;12.116;2024-02-23T06:58:01;5.40;99.90
25280;DHT22;13225;47.804;12.116;2024-02-23T07:00:27;5.40;99.90
25280;DHT22;13225;47.804;12.116;2024-02-23T07:02:53;5.30;99.90
25280;DHT22;13225;47.804;12.116;2024-02-23T07:05:19;5.30;99.90
25280;DHT22;13225;47.804;12.116;2024-02-23T07:07:45;5.20;99.90
25280;DHT22;13225;47.804;12.116;2024-02-23T07:10:11;5.20;99.90
25280;DHT22;13225;47.804;12.116;2024-02-23T07:12:37;5.20;99.90
25280;DHT22;13225;47.804;12.116;2024-02-23T07:15:03;5.10;99.90
25280;DHT22;13225;47.804;12.116;2024-02-23T07:17:29;5.00;99.90
25280;DHT22;13225;47.804;12.116;2024-02-23T07:19:54;5.00;99.90
25280;DHT22;13225;47.804;12.116;2024-02-23T07:22:28;5.10;99.90
25280;DHT22;13225;47.804;12.116;2024-02-23T07:24:53;5.10;99.90
25280;DHT22;13225;47.804;12.116;2024-02-23T07:27:19;5.00;99.90
25280;DHT22;13225;47.804;12.116;2024-02-23T07:29:44;5.00;99.90
25280;DHT22;13225;47.804;12.116;2024-02-23T07:32:10;5.10;99.90
25280;DHT22;13225;47.804;12.116;2024-02-23T07:34:36;5.10;99.90
25280;DHT22;13225;47.804;12.116;2024-02-23T07:37:02;5.00;99.90
25280;DHT22;13225;47.804;12.116;2024-02-23T07:39:28;4.90;99.90
25280;DHT22;13225;47.804;12.116;2024-02-23T07:41:53;4.90;99.90
25280;DHT22;13225;47.804;12.116;2024-02-23T07:44:19;4.80;99.90
25280;DHT22;13225;47.804;12.116;2024-02-23T07:46:44;4.90;99.90
25280;DHT22;13225;47.804;12.116;2024-02-23T07:49:10;5.00;99.90
25280;DHT22;13225;47.804;12.116;2024-02-23T07:51:36;5.00;99.90
25280;DHT22;13225;47.804;12.116;2024-02-23T07:54:01;5.00;99.90
25280;DHT22;13225;47.804;12.116;2024-02-23T07:56:27;4.90;99.90
25280;DHT22;13225;47.804;12.116;2024-02-23T07:58:54;4.90;99.90
25280;DHT22;13225;47.804;12.116;2024-02-23T08:01:19;4.90;99.90
25280;DHT22;13225;47.804;12.116;2024-02-23T08:03:45;4.80;99.90
25280;DHT22;13225;47.804;12.116;2024-02-23T08:06:10;4.90;99.90
25280;DHT22;13225;47.804;12.116;2024-02-23T08:08:38;4.90;99.90
25280;DHT22;13225;47.804;12.116;2024-02-23T08:11:04;4.90;99.90
25280;DHT22;13225;47.804;12.116;2024-02-23T08:13:29;4.90;99.90
25280;DHT22;13225;47.804;12.116;2024-02-23T08:15:57;4.90;99.90
25280;DHT22;13225;47.804;12.116;2024-02-23T08:18:22;4.90;99.90
25280;DHT22;13225;47.804;12.116;2024-02-23T08:20:48;4.90;99.90
25280;DHT22;13225;47.804;12.116;2024-02-23T08:23:14;4.90;99.90
25280;DHT22;13225;47.804;12.116;2024-02-23T08:25:39;4.90;99.90
25280;DHT22;13225;47.804;12.116;2024-02-23T08:28:05;4.90;99.90
25280;DHT22;13225;47.804;12.116;2024-02-23T08:30:31;5.00;99.90
25280;DHT22;13225;47.804;12.116;2024-02-23T08:32:57;5.00;99.90
25280;DHT22;13225;47.804;12.116;2024-02-23T08:35:23;4.90;99.90
25280;DHT22;13225;47.804;12.116;2024-02-23T08:37:48;5.00;99.90
25280;DHT22;13225;47.804;12.116;2024-02-23T08:40:14;5.00;99.90
25280;DHT22;13225;47.804;12.116;2024-02-23T08:42:40;5.10;99.90
25280;DHT22;13225;47.804;12.116;2024-02-23T08:45:06;5.20;99.90
25280;DHT22;13225;47.804;12.116;2024-02-23T08:47:31;5.10;99.90
25280;DHT22;13225;47.804;12.116;2024-02-23T08:49:59;5.10;99.90
25280;DHT22;13225;47.804;12.116;2024-02-23T08:52:25;5.10;99.90
25280;DHT22;13225;47.804;12.116;2024-02-23T08:54:52;5.20;99.90
25280;DHT22;13225;47.804;12.116;2024-02-23T08:57:17;5.10;99.90
25280;DHT22;13225;47.804;12.116;2024-02-23T08:59:45;5.00;99.90
25280;DHT22;13225;47.804;12.116;2024-02-23T09:02:11;4.90;99.90
25280;DHT22;13225;47.804;12.116;2024-02-23T09:04:37;4.60;99.90
25280;DHT22;13225;47.804;12.116;2024-02-23T09:07:03;4.70;99.90
25280;DHT22;13225;47.804;12.116;2024-02-23T09:09:28;4.80;99.90
25280;DHT22;13225;47.804;12.116;2024-02-23T09:11:55;4.90;99.90
25280;DHT22;13225;47.804;12.116;2024-02-23T09:14:21;4.90;99.90
25280;DHT22;13225;47.804;12.116;2024-02-23T09:16:46;4.90;99.90
25280;DHT22;13225;47.804;12.116;2024-02-23T09:19:16;4.90;99.90
25280;DHT22;13225;47.804;12.116;2024-02-23T09:21:41;4.90;99.90
25280;DHT22;13225;47.804;12.116;2024-02-23T09:24:07;4.80;99.90
25280;DHT22;13225;47.804;12.116;2024-02-23T09:26:33;4.80;99.90
25280;DHT22;13225;47.804;12.116;2024-02-23T09:28:58;4.80;99.90
25280;DHT22;13225;47.804;12.116;2024-02-23T09:31:24;4.70;99.90
25280;DHT22;13225;47.804;12.116;2024-02-23T09:33:49;4.70;99.90
25280;DHT22;13225;47.804;12.116;2024-02-23T09:36:17;4.70;99.90
25280;DHT22;13225;47.804;12.116;2024-02-23T09:38:43;4.80;99.90
25280;DHT22;13225;47.804;12.116;2024-02-23T09:41:19;4.70;99.90
25280;DHT22;13225;47.804;12.116;2024-02-23T09:43:46;4.80;99.90
25280;DHT22;13225;47.804;12.116;2024-02-23T09:46:13;4.70;99.90
25280;DHT22;13225;47.804;12.116;2024-02-23T09:48:42;4.80;99.90
25280;DHT22;13225;47.804;12.116;2024-02-23T09:51:09;4.70;99.90
25280;DHT22;13225;47.804;12.116;2024-02-23T09:53:37;4.70;99.90
25280;DHT22;13225;47.804;12.116;2024-02-23T09:56:04;4.80;99.90
25280;DHT22;13225;47.804;12.116;2024-02-23T09:58:31;4.80;99.90
25280;DHT22;13225;47.804;12.116;2024-02-23T10:00:59;4.80;99.90
25280;DHT22;13225;47.804;12.116;2024-02-23T10:03:27;4.70;99.90
25280;DHT22;13225;47.804;12.116;2024-02-23T10:05:54;4.70;99.90
25280;DHT22;13225;47.804;12.116;2024-02-23T10:08:20;4.60;99.90
25280;DHT22;13225;47.804;12.116;2024-02-23T10:10:46;4.60;99.90
25280;DHT22;13225;47.804;12.116;2024-02-23T10:13:12;4.60;99.90
25280;DHT22;13225;47.804;12.116;2024-02-23T10:15:38;4.50;99.90
25280;DHT22;13225;47.804;12.116;2024-02-23T10:18:04;4.50;99.90
25280;DHT22;13225;47.804;12.116;2024-02-23T10:20:30;4.60;99.90
25280;DHT22;13225;47.804;12.116;2024-02-23T10:22:56;4.50;99.90
25280;DHT22;13225;47.804;12.116;2024-02-23T10:25:22;4.50;99.90
25280;DHT22;13225;47.804;12.116;2024-02-23T10:27:48;4.40;99.90
25280;DHT22;13225;47.804;12.116;2024-02-23T10:30:14;4.20;99.90
25280;DHT22;13225;47.804;12.116;2024-02-23T10:32:41;4.30;99.90
25280;DHT22;13225;47.804;12.116;2024-02-23T10:35:15;4.10;99.90
25280;DHT22;13225;47.804;12.116;2024-02-23T10:37:44;4.10;99.90
25280;DHT22;13225;47.804;12.116;2024-02-23T10:40:14;4.00;99.90
25280;DHT22;13225;47.804;12.116;2024-02-23T10:42:43;3.90;99.90
25280;DHT22;13225;47.804;12.116;2024-02-23T10:45:15;3.70;99.90
25280;DHT22;13225;47.804;12.116;2024-02-23T10:47:41;3.70;99.90
25280;DHT22;13225;47.804;12.116;2024-02-23T10:50:08;3.70;99.90
25280;DHT22;13225;47.804;12.116;2024-02-23T10:52:35;3.80;99.90
25280;DHT22;13225;47.804;12.116;2024-02-23T10:55:01;3.90;99.90
25280;DHT22;13225;47.804;12.116;2024-02-23T10:57:31;3.90;99.90
25280;DHT22;13225;47.804;12.116;2024-02-23T10:59:57;3.90;99.90
25280;DHT22;13225;47.804;12.116;2024-02-23T11:02:25;4.00;99.90
25280;DHT22;13225;47.804;12.116;2024-02-23T11:04:54;3.90;99.90
25280;DHT22;13225;47.804;12.116;2024-02-23T11:07:21;3.90;99.90
25280;DHT22;13225;47.804;12.116;2024-02-23T11:09:55;4.00;99.90
25280;DHT22;13225;47.804;12.116;2024-02-23T11:12:29;3.90;99.90
25280;DHT22;13225;47.804;12.116;2024-02-23T11:14:59;4.00;99.90
25280;DHT22;13225;47.804;12.116;2024-02-23T11:17:30;4.00;99.90
25280;DHT22;13225;47.804;12.116;2024-02-23T11:19:56;3.90;99.90
25280;DHT22;13225;47.804;12.116;2024-02-23T11:22:33;4.00;99.90
25280;DHT22;13225;47.804;12.116;2024-02-23T11:25:04;4.00;99.90
25280;DHT22;13225;47.804;12.116;2024-02-23T11:27:31;4.00;99.90
25280;DHT22;13225;47.804;12.116;2024-02-23T11:30:05;4.10;99.90
25280;DHT22;13225;47.804;12.116;2024-02-23T11:32:42;4.10;99.90
25280;DHT22;13225;47.804;12.116;2024-02-23T11:35:11;4.10;99.90
25280;DHT22;13225;47.804;12.116;2024-02-23T11:37:53;4.10;99.90
25280;DHT22;13225;47.804;12.116;2024-02-23T11:40:30;4.10;99.90
25280;DHT22;13225;47.804;12.116;2024-02-23T11:42:57;4.10;99.90
25280;DHT22;13225;47.804;12.116;2024-02-23T11:45:24;4.20;99.90
25280;DHT22;13225;47.804;12.116;2024-02-23T11:47:50;4.10;99.90
25280;DHT22;13225;47.804;12.116;2024-02-23T11:50:16;4.10;99.90
25280;DHT22;13225;47.804;12.116;2024-02-23T11:52:45;3.90;99.90
25280;DHT22;13225;47.804;12.116;2024-02-23T11:55:11;4.00;99.90
25280;DHT22;13225;47.804;12.116;2024-02-23T11:57:36;4.10;99.90
25280;DHT22;13225;47.804;12.116;2024-02-23T12:00:07;4.00;99.90
25280;DHT22;13225;47.804;12.116;2024-02-23T12:02:35;3.80;99.90
25280;DHT22;13225;47.804;12.116;2024-02-23T12:05:00;3.90;99.90
25280;DHT22;13225;47.804;12.116;2024-02-23T12:07:30;3.80;99.90
25280;DHT22;13225;47.804;12.116;2024-02-23T12:09:56;3.90;99.90
25280;DHT22;13225;47.804;12.116;2024-02-23T12:12:24;3.80;99.90
25280;DHT22;13225;47.804;12.116;2024-02-23T12:14:50;3.80;99.90
25280;DHT22;13225;47.804;12.116;2024-02-23T12:17:16;3.70;99.90
25280;DHT22;13225;47.804;12.116;2024-02-23T12:19:42;3.70;99.90
25280;DHT22;13225;47.804;12.116;2024-02-23T12:22:08;3.70;99.90
25280;DHT22;13225;47.804;12.116;2024-02-23T12:24:35;3.60;99.90
25280;DHT22;13225;47.804;12.116;2024-02-23T12:27:00;3.60;99.90
25280;DHT22;13225;47.804;12.116;2024-02-23T12:29:26;3.70;99.90
25280;DHT22;13225;47.804;12.116;2024-02-23T12:32:05;3.80;99.90
25280;DHT22;13225;47.804;12.116;2024-02-23T12:34:31;3.90;99.90
25280;DHT22;13225;47.804;12.116;2024-02-23T12:36:57;3.90;99.90
25280;DHT22;13225;47.804;12.116;2024-02-23T12:39:23;3.70;99.90
25280;DHT22;13225;47.804;12.116;2024-02-23T12:41:48;3.70;99.90
25280;DHT22;13225;47.804;12.116;2024-02-23T12:44:16;3.70;99.90
25280;DHT22;13225;47.804;12.116;2024-02-23T12:46:41;3.80;99.90
25280;DHT22;13225;47.804;12.116;2024-02-23T12:49:07;3.90;99.90
25280;DHT22;13225;47.804;12.116;2024-02-23T12:51:32;3.90;99.90
25280;DHT22;13225;47.804;12.116;2024-02-23T12:54:00;3.80;99.90
25280;DHT22;13225;47.804;12.116;2024-02-23T12:56:25;3.80;99.90
25280;DHT22;13225;47.804;12.116;2024-02-23T12:58:51;3.80;99.90
25280;DHT22;13225;47.804;12.116;2024-02-23T13:01:19;3.80;99.90
25280;DHT22;13225;47.804;12.116;2024-02-23T13:03:45;3.80;99.90
25280;DHT22;13225;47.804;12.116;2024-02-23T13:06:10;3.90;99.90
25280;DHT22;13225;47.804;12.116;2024-02-23T13:08:36;3.90;99.90
25280;DHT22;13225;47.804;12.116;2024-02-23T13:11:01;4.00;99.90
25280;DHT22;13225;47.804;12.116;2024-02-23T13:13:28;4.10;99.90
25280;DHT22;13225;47.804;12.116;2024-02-23T13:15:54;4.00;99.90
25280;DHT22;13225;47.804;12.116;2024-02-23T13:18:20;4.00;99.90
25280;DHT22;13225;47.804;12.116;2024-02-23T13:20:46;3.90;99.90
25280;DHT22;13225;47.804;12.116;2024-02-23T13:23:12;3.80;99.90
25280;DHT22;13225;47.804;12.116;2024-02-23T13:25:39;3.70;99.90
25280;DHT22;13225;47.804;12.116;2024-02-23T13:28:05;3.60;99.90
25280;DHT22;13225;47.804;12.116;2024-02-23T13:30:31;3.60;99.90
25280;DHT22;13225;47.804;12.116;2024-02-23T13:32:57;3.60;99.90
25280;DHT22;13225;47.804;12.116;2024-02-23T13:35:23;3.60;99.90
25280;DHT22;13225;47.804;12.116;2024-02-23T13:37:49;3.70;99.90
25280;DHT22;13225;47.804;12.116;2024-02-23T13:40:14;3.60;99.90
25280;DHT22;13225;47.804;12.116;2024-02-23T13:42:40;3.50;99.90
25280;DHT22;13225;47.804;12.116;2024-02-23T13:45:07;3.50;99.90
25280;DHT22;13225;47.804;12.116;2024-02-23T13:47:33;3.60;99.90
25280;DHT22;13225;47.804;12.116;2024-02-23T13:49:59;3.60;99.90
25280;DHT22;13225;47.804;12.116;2024-02-23T13:52:25;3.60;99.90
25280;DHT22;13225;47.804;12.116;2024-02-23T13:54:51;3.80;99.90
25280;DHT22;13225;47.804;12.116;2024-02-23T13:57:16;3.80;99.90
25280;DHT22;13225;47.804;12.116;2024-02-23T13:59:42;3.90;99.90
25280;DHT22;13225;47.804;12.116;2024-02-23T14:02:07;3.80;99.90
25280;DHT22;13225;47.804;12.116;2024-02-23T14:04:33;3.80;99.90
25280;DHT22;13225;47.804;12.116;2024-02-23T14:06:59;3.90;99.90
25280;DHT22;13225;47.804;12.116;2024-02-23T14:09:24;3.80;99.90
25280;DHT22;13225;47.804;12.116;2024-02-23T14:11:50;3.80;99.90
25280;DHT22;13225;47.804;12.116;2024-02-23T14:14:15;3.80;99.90
25280;DHT22;13225;47.804;12.116;2024-02-23T14:16:41;3.90;99.90
25280;DHT22;13225;47.804;12.116;2024-02-23T14:19:07;3.80;99.90
25280;DHT22;13225;47.804;12.116;2024-02-23T14:21:33;3.80;99.90
25280;DHT22;13225;47.804;12.116;2024-02-23T14:23:58;3.80;99.90
25280;DHT22;13225;47.804;12.116;2024-02-23T14:26:25;3.70;99.90
25280;DHT22;13225;47.804;12.116;2024-02-23T14:28:50;3.60;99.90
25280;DHT22;13225;47.804;12.116;2024-02-23T14:31:16;3.40;99.90
25280;DHT22;13225;47.804;12.116;2024-02-23T14:33:41;3.30;99.90
25280;DHT22;13225;47.804;12.116;2024-02-23T14:36:07;3.40;99.90
25280;DHT22;13225;47.804;12.116;2024-02-23T14:38:33;3.40;99.90
25280;DHT22;13225;47.804;12.116;2024-02-23T14:40:58;3.40;99.90
25280;DHT22;13225;47.804;12.116;2024-02-23T14:43:24;3.20;99.90
25280;DHT22;13225;47.804;12.116;2024-02-23T14:45:51;3.10;99.90
25280;DHT22;13225;47.804;12.116;2024-02-23T14:48:18;3.20;99.90
25280;DHT22;13225;47.804;12.116;2024-02-23T14:50:43;3.10;99.90
25280;DHT22;13225;47.804;12.116;2024-02-23T14:53:09;3.10;99.90
25280;DHT22;13225;47.804;12.116;2024-02-23T14:55:36;3.10;99.90
25280;DHT22;13225;47.804;12.116;2024-02-23T14:58:02;3.10;99.90
25280;DHT22;13225;47.804;12.116;2024-02-23T15:00:28;3.20;99.90
25280;DHT22;13225;47.804;12.116;2024-02-23T15:02:55;3.10;99.90
25280;DHT22;13225;47.804;12.116;2024-02-23T15:05:22;3.10;99.90
25280;DHT22;13225;47.804;12.116;2024-02-23T15:07:48;3.10;99.90
25280;DHT22;13225;47.804;12.116;2024-02-23T15:10:14;3.10;99.90
25280;DHT22;13225;47.804;12.116;2024-02-23T15:12:40;3.10;99.90
25280;DHT22;13225;47.804;12.116;2024-02-23T15:15:06;3.10;99.90
25280;DHT22;13225;47.804;12.116;2024-02-23T15:17:32;3.10;99.90
25280;DHT22;13225;47.804;12.116;2024-02-23T15:19:58;3.10;99.90
25280;DHT22;13225;47.804;12.116;2024-02-23T15:22:24;3.10;99.90
25280;DHT22;13225;47.804;12.116;2024-02-23T15:24:51;3.10;99.90